Anicuns Airport

BR-0059 · 戈亚斯州, 巴西

METAR的历史 BR-0059 · Anicuns Airport

下面你可以看到过去几天的METARs。 选择年份以浏览从2007年开始的旧METAR。

2024年4月14日

时间 代码 天气 温度 能见度 天花板 METAR/SPECI
14:00
V
31 °C 10 km+ 4.500 ft 030° 030° 5 kt METAR SBGO 141700Z 03005KT 330V100 9999 BKN045 31/20 Q1015
13:00
V
29 °C 10 km+ 4.500 ft 070° 070° 5 kt METAR SBGO 141600Z 07005KT 020V130 9999 BKN045 29/19 Q1016
12:00
V
29 °C 10 km+ - 040° 040° 7 kt METAR SBGO 141500Z 04007KT CAVOK 29/20 Q1017
11:00
V
28 °C 10 km+ - 040° 040° 6 kt METAR SBGO 141400Z 04006KT 330V090 CAVOK 28/20 Q1018
10:00
V
27 °C 10 km+ - 200° 200° 3 kt METAR SBGO 141300Z 20003KT CAVOK 27/20 Q1019
09:00
V
25 °C 10 km+ - 340° 340° 3 kt METAR SBGO 141200Z 34003KT CAVOK 25/20 Q1019
08:00
V
23 °C 10 km+ - 360° 360° 0 kt METAR SBGO 141100Z 00000KT CAVOK 23/20 Q1018
07:00
V
21 °C 10 km+ - 360° 360° 0 kt METAR SBGO 141000Z 00000KT CAVOK 21/19 Q1017
06:00
V
21 °C 10 km+ - 360° 360° 0 kt METAR SBGO 140900Z 00000KT CAVOK 21/20 Q1016
05:00
V
21 °C 10 km+ - 360° 360° 0 kt METAR SBGO 140800Z 00000KT CAVOK 21/19 Q1015
04:00
V
22 °C 10 km+ - 360° 360° 0 kt METAR SBGO 140700Z 00000KT CAVOK 22/19 Q1015
03:00
V
22 °C 10 km+ - 360° 360° 0 kt METAR SBGO 140600Z 00000KT CAVOK 22/20 Q1015
02:00
V
22 °C 10 km+ - 360° 360° 0 kt METAR SBGO 140500Z 00000KT CAVOK 22/20 Q1015
01:00
V
23 °C 10 km+ - 360° 360° 0 kt METAR SBGO 140400Z 00000KT CAVOK 23/20 Q1016
00:00
V
24 °C 10 km+ - 360° 360° 0 kt METAR SBGO 140300Z 00000KT CAVOK 24/20 Q1016

2024年4月13日

时间 代码 天气 温度 能见度 天花板 METAR/SPECI
23:00
V
24 °C 10 km+ - 360° 360° 0 kt METAR SBGO 140200Z 00000KT CAVOK 24/19 Q1016
22:00
V
24 °C 10 km+ - 360° 360° 0 kt METAR SBGO 140100Z 00000KT CAVOK 24/20 Q1016
21:00
V
26 °C 10 km+ - 060° 060° 4 kt METAR SBGO 140000Z 06004KT 020V090 CAVOK 26/19 Q1016
20:00
V
27 °C 10 km+ - 080° 080° 6 kt METAR SBGO 132300Z 08006KT CAVOK 27/19 Q1015
19:00
V
27 °C 10 km+ - 080° 080° 6 kt METAR SBGO 132200Z 08006KT CAVOK 27/19 Q1015
18:00
V
28 °C 10 km+ - 080° 080° 7 kt METAR SBGO 132100Z 08007KT 9999 FEW050 FEW053TCU 28/19 Q1014
17:00
V
30 °C 10 km+ - 080° 080° 11 kt METAR SBGO 132000Z 08011KT 9999 SCT050 FEW053TCU 30/19 Q1014
16:00
V
30 °C 10 km+ - 090° 090° 11 kt METAR SBGO 131900Z 09011KT CAVOK 30/19 Q1014
15:00
V
31 °C 10 km+ - 080° 080° 9 kt METAR SBGO 131800Z 08009KT CAVOK 31/18 Q1015
14:00
V
31 °C 10 km+ - 070° 070° 7 kt METAR SBGO 131700Z 07007KT 350V120 CAVOK 31/20 Q1016
13:00
V
30 °C 10 km+ - 050° 050° 10 kt METAR SBGO 131600Z 05010KT 9999 SCT045 SCT100 30/20 Q1017
12:00
V
30 °C 10 km+ - 070° 070° 11 kt METAR SBGO 131500Z 07011KT 9999 FEW040 30/20 Q1018
11:00
V
29 °C 10 km+ - 060° 060° 11 kt METAR SBGO 131400Z 06011KT 010V100 9999 FEW035 29/20 Q1018
10:00
V
28 °C 10 km+ - 080° 080° 10 kt METAR SBGO 131300Z 08010KT 9999 FEW026 SCT100 28/20 Q1019
09:00
V
25 °C 10 km+ - 120° 120° 5 kt METAR SBGO 131200Z 12005KT CAVOK 25/22 Q1019
08:00
V
23 °C 10 km+ 9.000 ft 140° 140° 4 kt METAR SBGO 131100Z 14004KT 9999 FEW045 BKN090 23/21 Q1018
07:00
V
23 °C 10 km+ 8.000 ft 360° 360° 0 kt METAR SBGO 131000Z 00000KT 9999 FEW045 BKN080 23/22 Q1018
06:00
V
23 °C 10 km+ 8.000 ft 360° 360° 0 kt METAR SBGO 130900Z 00000KT 9999 FEW045 BKN080 23/21 Q1017
05:00
V
23 °C 10 km+ 8.000 ft 360° 360° 0 kt METAR SBGO 130800Z 00000KT 9999 FEW045 BKN080 23/21 Q1017
04:00
V
23 °C 10 km+ 8.000 ft 360° 360° 0 kt METAR SBGO 130700Z 00000KT 9999 FEW045 BKN080 23/21 Q1016
03:00
V
23 °C 10 km+ 8.000 ft 360° 360° 0 kt METAR SBGO 130600Z 00000KT 9999 FEW045 BKN080 23/22 Q1017
02:00
V
23 °C 10 km+ 8.000 ft 360° 360° 0 kt METAR SBGO 130500Z 00000KT 9999 FEW045 BKN080 23/21 Q1017
01:00
V
23 °C 10 km+ 8.000 ft 360° 360° 0 kt METAR SBGO 130400Z 00000KT 9999 FEW045 BKN080 23/21 Q1017
00:00
V
23 °C 10 km+ 8.000 ft 120° 120° 3 kt METAR SBGO 130300Z 12003KT 9999 FEW045 BKN080 23/21 Q1018

2024年4月12日

时间 代码 天气 温度 能见度 天花板 METAR/SPECI
23:00
V
24 °C 10 km+ 8.000 ft 150° 150° 3 kt METAR SBGO 130200Z 15003KT 9999 SCT053TCU BKN080 24/21 Q1018
22:00
V
24 °C 10 km+ 8.000 ft 120° 120° 6 kt METAR SBGO 130100Z 12006KT 9999 FEW050 SCT053TCU BKN080 24/22 Q1018
21:00
V
24 °C 10 km+ 8.000 ft 130° 130° 5 kt METAR SBGO 130000Z 13005KT 9999 VCSH FEW050 SCT053TCU BKN080 24/22 Q1018
20:00
V
24 °C 10 km+ 8.000 ft 140° 140° 4 kt METAR SBGO 122300Z 14004KT 9999 FEW050 SCT053TCU BKN080 24/22 Q1017
19:00
V
24 °C 10 km+ 8.000 ft 110° 110° 4 kt METAR SBGO 122200Z 11004KT 9999 FEW050 FEW053TCU BKN080 24/21 Q1016
18:00
V
25 °C 10 km+ 10.000 ft 100° 100° 8 kt METAR SBGO 122100Z 10008KT 9999 FEW030 FEW040TCU BKN100 25/21 Q1015
17:00
V
26 °C 10 km+ 10.000 ft 120° 120° 7 kt METAR SBGO 122000Z 12007KT 9999 FEW030 FEW040TCU BKN100 26/21 Q1015
16:00
V
27 °C 10 km+ 10.000 ft 110° 110° 8 kt METAR SBGO 121900Z 11008KT 9999 VCSH FEW030 FEW045TCU BKN100 27/22 Q1015 RESHRA
15:00
V
27 °C 10 km+ 9.000 ft Var Var 6 kt METAR SBGO 121800Z VRB06KT 9999 SHRA SCT026 FEW040TCU BKN090 27/22 Q1016
14:00
V
25 °C 10 km+ 9.000 ft 280° 280° 4 kt METAR SBGO 121700Z 28004KT 240V340 9999 VCSH SCT026 FEW040TCU BKN090 25/20 Q1016 RETS
13:00
V
26 °C 10 km+ 9.000 ft 010° 010° 10 kt METAR SBGO 121600Z 01010KT 9999 TS VCSH SCT026 SCT035 SCT040CB BKN090 26/21 Q1017
12:40
V
26 °C 10 km+ 9.000 ft 090° 090° 9 kt METAR SBGO 121540Z 09009KT 9999 TS VCSH SCT030 SCT040CB BKN090 26/20 Q1017
12:00
V
25 °C 10 km+ 9.000 ft 100° 100° 13 kt METAR SBGO 121500Z 10013KT 9999 -RA SCT030 FEW040TCU BKN090 25/22 Q1017
11:00
V
29 °C 10 km+ 9.000 ft Var Var 4 kt METAR SBGO 121400Z VRB04KT 9999 FEW030 FEW040TCU BKN090 29/22 Q1018
10:00
V
26 °C 10 km+ 9.000 ft 160° 160° 3 kt METAR SBGO 121300Z 16003KT 110V200 9999 FEW030 BKN090 26/22 Q1019
09:00
V
24 °C 10 km+ 9.000 ft 110° 110° 6 kt METAR SBGO 121200Z 11006KT 9999 FEW012 BKN090 24/22 Q1018
08:00
V
23 °C 10 km+ 9.000 ft 110° 110° 3 kt METAR SBGO 121100Z 11003KT 090V170 9999 FEW006 BKN090 23/22 Q1018
07:00
V
22 °C 10 km+ - 360° 360° 0 kt METAR SBGO 121000Z 00000KT CAVOK 22/21 Q1017
06:00
V
22 °C 10 km+ - 360° 360° 0 kt METAR SBGO 120900Z 00000KT CAVOK 22/21 Q1017
05:00
V
22 °C 10 km+ - 360° 360° 0 kt METAR SBGO 120800Z 00000KT CAVOK 22/21 Q1016
04:00
V
22 °C 10 km+ - 360° 360° 0 kt METAR SBGO 120700Z 00000KT CAVOK 22/21 Q1016
03:00
V
23 °C 10 km+ - 360° 360° 0 kt METAR SBGO 120600Z 00000KT CAVOK 23/21 Q1017
报告变更